Aérodrome :
LOGIN :

S'inscrire | Disclaimer

   EN    FR    IT 

 










Légende :    VFR   VFR Marginal   IFR   IFR Intensif   IFR Très Intensif
Visi : 
Plafond : 
>= 8 km
>= 3000ft
5 à 8 km
1000 à 3000 ft
1500m à 5 km
500 à 1000 ft
800 à 1500m
200 à 500 ft
< 800m
< 200 ft
Symboles :   Orages  Brouillard  Fortes neiges  Fortes précipitations  Vent > 20 kt
SIGMETs :   Divers  Orages  Givrage  Turbulence  Onde Orograph.  Cendres Volcan.






- Altitude de l'aérodrome : 65 ft
- Code IATA : PMO


LICJ - Palermo Punta Raisi

DERNIER METAR :
  • 141120Z 03013KT CAVOK 24/16 Q1019

METARs EXPIRÉS :
  • 141050Z 03011KT CAVOK 24/15 Q1019
  • 141020Z 03010KT CAVOK 24/15 Q1019
  • 140950Z 03010KT CAVOK 24/15 Q1019
  • 140920Z 03010KT CAVOK 24/15 Q1019
  • 140850Z 03010KT 9999 FEW040 24/15 Q1019
  • 140820Z 03009KT 9999 FEW030 24/16 Q1019
  • 140750Z 04010KT 9999 FEW030 24/16 Q1019
  • 140720Z 05009KT 020V080 9999 FEW040 23/15 Q1019
  • 140650Z 03009KT 9999 FEW040 23/17 Q1019

TAF TAF LICJ
Valide du 14 à 12h jusqu'au 15 à 12h UTC


141100Z 1412/1512 03015KT 9999 FEW030
BECMG 1420/1422 VRB05KT
BECMG 1508/1510 03015KT



MET'MAP, la Météo Aéronautique d'un coup d'oeil ! - Copyright ORBIFLY Décembre 2007 - Disclaimer

ORBIFLY MET'MAP TEAM :

Programmation & Développement : Alexandra Zaïnal
Sur une idée originale de : Baudouin d'Aumeries
Soutien technique & logistique : Manuel Goepfert
Assistance : Marc-Olivier Méhu




SOURCES & CREDITS :

   NOAA